YMML/MEL METAR and TAF weather

Enter ICAO airport designator
Station Type Date Time Source
YMML METAR 2022/01/26 07:30 UTC NOAA

YMML 260730Z 17009KT 9999 FEW100TCU BKN350 33/17 Q1005


Station Type Date Time Source
YMML Decoded METAR 2022/01/26 07:30 UTC NOAA

Melbourne Airport, Australia (YMML) 37-40S 144-50E 141M
Jan 26, 2022 - 02:30 AM EST / 2022.01.26 0730 UTC
Wind: from the S (170 degrees) at 10 MPH (9 KT):0
Visibility: greater than 7 mile(s):0
Sky conditions: mostly cloudy
Weather: Towering cumulus clouds observed
Temperature: 91 F (33 C)
Dew Point: 62 F (17 C)
Relative Humidity: 38%
Pressure (altimeter): 29.68 in. Hg (1005 hPa)
ob: YMML 260730Z 17009KT 9999 FEW100TCU BKN350 33/17 Q1005
cycle: 7

Station Type Date Time Source
YMML TAF 2022/01/26 06:36 UTC NOAA

TAF
AMD YMML 260616Z 2606/2712 04010KT CAVOK
FM261000 02010KT 9999 -SHRA SCT040
BECMG 2616/2618 01018G28KT 9999 -SHRA SCT040
FM262100 01020G30KT 9999 NSW SCT050
FM270600 35018G28KT 9999 -SHRA SCT050 PROB30
TEMPO 2608/2615 VRB20G35KT 5000 TSRA SCT050 SCT080CB PROB30 INTER 2615/2619 VRB25G40KT 3000 TSRA FEW025 SCT040 SCT070CB PROB30 INTER 2707/2710 VRB25G40KT 5000 TSRA SCT040 FEW070CB

Example: see airport list